Portada
METAR-TAF:

METAR-TAF

Aeropuertos :

Kermanshah, Irán

latitud: 34-16N, longitud: 047-07E, altitud: 1320 m

Observación

El informe se hizo hace 37 minutos, a las 10:30 UTC
Viento 10 kt del oeste
Temperatura -1°C
Humedad 54%
Presión 1021 hPa
Visibilidad: 6000 m
Escasas nubes a una altura de 5000 ft

METAR: OICC 221030Z 27010KT 6000 FEW050 M01/M09 Q1021 A3015

Hora: 14:37 (11:07 UTC)

Pronóstico

El informe se hizo hace 5 horas y 37 minutos, a las 05:30 UTC
Pronóstico válido del 22 a las 06 UTC al 22 a las 15 UTC
Viento 8 kt del este-sureste
Visibilidad: 8000 m

TAF: OICC 220530Z 2206/2215 12008KT 8000 NSC

Observaciones y pronósticos meteorológicos de más de 4000 aeropuertos (mensajes METAR y TAF).

Los puntos amarillos y rojos representan las estaciones disponibles.

Ponga el ratón en el punto deseado para ver el nombre de la estación.

Haga clic para ver las observaciones y los pronósticos meteorológicos.

Para cambiar el mapa : haga clic en los botones verdes con una cruz de color negro para hacer un zoom, en el botón verde con un guión para alejar o en las flechas verdes para mapas adyacentes.


METAR-TAF: